createdAt,value
2019-05-22T00:01:38.832Z,99888.88
2019-05-22T00:04:27.891Z,99888.88
2019-05-22T00:07:02.769Z,99886.02
2019-05-22T00:09:38.665Z,99893.27
2019-05-22T00:12:19.567Z,99886.97
2019-05-22T00:14:54.787Z,99895.45
2019-05-22T00:17:32.562Z,99895.45
2019-05-22T00:20:07.012Z,99903.44
2019-05-22T00:22:39.603Z,99903.44
2019-05-22T00:25:14.329Z,99905.06
2019-05-22T00:27:48.312Z,99903.10
2019-05-22T00:30:21.068Z,99900.06
2019-05-22T00:32:53.300Z,99898.17
2019-05-22T00:35:25.748Z,99906.55
2019-05-22T00:37:56.664Z,99900.06
2019-05-22T00:40:29.594Z,99905.52
2019-05-22T00:43:06.790Z,99895.64
2019-05-22T00:45:36.258Z,99896.39
2019-05-22T00:48:09.381Z,99898.36
2019-05-22T00:50:54.473Z,99899.54
2019-05-22T00:53:40.494Z,99902.02
2019-05-22T00:56:36.680Z,99897.75
2019-05-22T00:59:14.490Z,99898.24
2019-05-22T01:01:48.371Z,99899.48
2019-05-22T01:04:23.915Z,99901.95
2019-05-22T01:06:58.475Z,99908.31
2019-05-22T01:09:39.763Z,99900.73
2019-05-22T01:12:19.776Z,99906.71
2019-05-22T01:14:53.726Z,99913.00
2019-05-22T01:17:28.307Z,99926.56
2019-05-22T01:20:01.679Z,99908.25
2019-05-22T01:22:37.268Z,99919.56
2019-05-22T01:25:11.416Z,99919.56
2019-05-22T01:27:44.392Z,99918.45
2019-05-22T01:30:24.633Z,99923.07
2019-05-22T01:32:55.749Z,99916.78
2019-05-22T01:35:33.265Z,99919.50
2019-05-22T01:38:06.784Z,99916.78
2019-05-22T01:40:48.308Z,99913.53
2019-05-22T01:43:24.513Z,99919.87
2019-05-22T01:45:55.337Z,99920.69
2019-05-22T01:48:34.310Z,99915.95
2019-05-22T01:51:06.818Z,99916.13
2019-05-22T01:53:41.424Z,99914.46
2019-05-22T01:56:14.289Z,99919.20
2019-05-22T01:58:46.422Z,99923.66
2019-05-22T02:01:22.381Z,99925.55
2019-05-22T02:03:56.362Z,99926.33
2019-05-22T02:06:28.454Z,99927.88
2019-05-22T02:09:38.290Z,99927.80
2019-05-22T02:12:23.849Z,99922.54
2019-05-22T02:14:56.666Z,99923.19
2019-05-22T02:17:33.563Z,99926.51
2019-05-22T02:20:08.821Z,99929.23
2019-05-22T02:22:42.748Z,99929.23
2019-05-22T02:25:14.269Z,99933.02
2019-05-22T02:27:46.694Z,99933.97
2019-05-22T02:30:19.087Z,99931.66
2019-05-22T02:32:51.330Z,99937.94
2019-05-22T02:35:24.987Z,99936.80
2019-05-22T02:37:57.737Z,99943.08
2019-05-22T02:40:33.263Z,99942.25
2019-05-22T02:43:06.734Z,99945.38
2019-05-22T02:45:38.907Z,99941.38
2019-05-22T02:48:11.677Z,99941.78
2019-05-22T02:50:44.294Z,99950.08
2019-05-22T02:53:17.311Z,99949.49
2019-05-22T02:55:49.307Z,99951.45
2019-05-22T02:58:23.031Z,99963.94
2019-05-22T03:01:05.670Z,99966.41
2019-05-22T03:03:38.051Z,99953.45
2019-05-22T03:06:13.717Z,99953.45
2019-05-22T03:09:16.279Z,99968.14
2019-05-22T03:11:58.302Z,99964.46
2019-05-22T03:14:31.365Z,99962.23
2019-05-22T03:17:05.714Z,99969.38
2019-05-22T03:19:43.232Z,99977.16
2019-05-22T03:22:28.725Z,99983.60
2019-05-22T03:25:02.316Z,99981.77
2019-05-22T03:27:49.702Z,99981.77
2019-05-22T03:30:27.348Z,99980.81
2019-05-22T03:33:00.301Z,99992.03
2019-05-22T03:35:33.768Z,99992.09
2019-05-22T03:38:05.261Z,99992.21
2019-05-22T03:40:38.306Z,99997.66
2019-05-22T03:43:25.292Z,99995.16
2019-05-22T03:45:57.795Z,100002.98
2019-05-22T03:48:35.374Z,100005.66
2019-05-22T03:51:15.643Z,100006.05
2019-05-22T03:53:47.358Z,99995.17
2019-05-22T03:56:20.493Z,99995.17
2019-05-22T03:58:53.449Z,100013.02
2019-05-22T04:01:25.302Z,100013.02
2019-05-22T04:03:57.600Z,100020.42
2019-05-22T04:06:30.432Z,100026.69
2019-05-22T04:09:20.461Z,100026.69
2019-05-22T04:11:52.302Z,100021.58
2019-05-22T04:14:34.782Z,100029.99
2019-05-22T04:17:08.397Z,100026.90
2019-05-22T04:19:49.593Z,100036.09
2019-05-22T04:22:15.318Z,100038.30
2019-05-22T04:24:47.575Z,100037.46
2019-05-22T04:27:21.435Z,100044.14
2019-05-22T04:29:54.510Z,100044.14
2019-05-22T04:32:35.384Z,100044.67
2019-05-22T04:35:11.771Z,100037.20
2019-05-22T04:37:43.286Z,100042.20
2019-05-22T04:41:00.301Z,100041.23
2019-05-22T04:43:37.312Z,100047.40
2019-05-22T04:46:10.349Z,100050.13
2019-05-22T04:48:45.853Z,100056.28
2019-05-22T04:51:29.423Z,100064.46
2019-05-22T04:54:01.309Z,100057.52
2019-05-22T04:56:32.833Z,100064.80
2019-05-22T04:59:04.777Z,100061.55
2019-05-22T05:01:35.571Z,100069.07
2019-05-22T05:04:07.539Z,100066.03
2019-05-22T05:06:40.549Z,100066.03
2019-05-22T05:09:14.643Z,100063.05
2019-05-22T05:11:46.894Z,100047.09
2019-05-22T05:14:18.420Z,100047.09
2019-05-22T05:16:50.298Z,100055.52
2019-05-22T05:19:22.260Z,100072.58
2019-05-22T05:21:53.822Z,100069.73
2019-05-22T05:24:25.773Z,100071.14
2019-05-22T05:26:56.488Z,100079.27
2019-05-22T05:29:30.718Z,100077.69
2019-05-22T05:32:01.567Z,100073.95
2019-05-22T05:35:09.311Z,100073.23
2019-05-22T05:37:40.983Z,100073.23
2019-05-22T05:40:39.741Z,100077.56
2019-05-22T05:43:18.277Z,100085.03
2019-05-22T05:45:51.302Z,100078.03
2019-05-22T05:48:26.453Z,100080.23
2019-05-22T05:51:27.869Z,100088.14
2019-05-22T05:54:13.487Z,100091.58
2019-05-22T05:56:50.311Z,100092.68
2019-05-22T05:59:27.061Z,100094.05
2019-05-22T06:02:00.659Z,100098.79
2019-05-22T06:04:39.903Z,100090.44
2019-05-22T06:07:25.782Z,100090.44
2019-05-22T06:11:02.779Z,100113.25
2019-05-22T06:13:34.596Z,100118.70
2019-05-22T06:17:45.346Z,100117.16
2019-05-22T06:20:19.675Z,100117.16
2019-05-22T06:24:15.765Z,100120.72
2019-05-22T06:27:19.844Z,100120.72
2019-05-22T06:30:00.147Z,100118.84
2019-05-22T06:33:36.330Z,100121.38
2019-05-22T06:36:14.765Z,100130.09
2019-05-22T06:39:03.746Z,100134.22
2019-05-22T06:41:38.017Z,100133.83
2019-05-22T06:44:45.393Z,100143.37
2019-05-22T06:47:20.664Z,100150.58
2019-05-22T06:49:54.487Z,100141.43
2019-05-22T06:52:26.291Z,100141.43
2019-05-22T06:54:58.664Z,100153.44
2019-05-22T06:57:34.360Z,100154.27
2019-05-22T07:00:31.378Z,100158.48
2019-05-22T07:03:03.550Z,100160.06
2019-05-22T07:05:35.302Z,100157.20
2019-05-22T07:08:07.659Z,100164.47
2019-05-22T07:10:41.792Z,100152.64
2019-05-22T07:13:14.719Z,100152.64
2019-05-22T07:15:50.551Z,100170.50
2019-05-22T07:18:25.306Z,100164.47
2019-05-22T07:20:58.405Z,100164.47
2019-05-22T07:23:32.442Z,100177.66
2019-05-22T07:26:06.449Z,100177.31
2019-05-22T07:28:45.640Z,100184.26
2019-05-22T07:31:17.677Z,100178.94
2019-05-22T07:33:48.500Z,100178.63
2019-05-22T07:36:20.906Z,100188.88
2019-05-22T07:38:52.378Z,100196.73
2019-05-22T07:41:24.003Z,100198.41
2019-05-22T07:43:55.902Z,100194.54
2019-05-22T07:46:30.794Z,100194.14
2019-05-22T07:49:01.307Z,100198.49
2019-05-22T07:51:51.499Z,100194.19
2019-05-22T07:54:08.862Z,100194.90
2019-05-22T07:56:40.685Z,100196.92
2019-05-22T07:59:11.653Z,100190.71
2019-05-22T08:01:43.586Z,100179.28
2019-05-22T08:04:15.694Z,100203.42
2019-05-22T08:06:46.468Z,100203.42
2019-05-22T08:09:18.363Z,100201.67
2019-05-22T08:11:50.414Z,100198.41
2019-05-22T08:14:22.173Z,100210.50
2019-05-22T08:16:53.898Z,100214.12
2019-05-22T08:19:26.292Z,100218.42
2019-05-22T08:22:06.678Z,100215.43
2019-05-22T08:24:33.374Z,100217.50
2019-05-22T08:27:11.575Z,100216.66
2019-05-22T08:29:44.002Z,100218.55
2019-05-22T08:32:15.873Z,100218.55
2019-05-22T08:34:47.905Z,100226.73
2019-05-22T08:37:21.613Z,100218.99
2019-05-22T08:39:53.606Z,100233.41
2019-05-22T08:42:26.327Z,100223.87
2019-05-22T08:44:57.999Z,100223.87
2019-05-22T08:47:29.762Z,100231.20
2019-05-22T08:50:06.569Z,100235.92
2019-05-22T08:52:38.686Z,100235.69
2019-05-22T08:55:11.647Z,100235.69
2019-05-22T08:57:48.717Z,100242.11
2019-05-22T09:00:25.507Z,100240.75
2019-05-22T09:02:57.544Z,100237.11
2019-05-22T09:05:29.815Z,100239.97
2019-05-22T09:08:21.164Z,100239.97
2019-05-22T09:10:39.859Z,100250.47
2019-05-22T09:13:11.436Z,100246.97
2019-05-22T09:15:43.777Z,100241.86
2019-05-22T09:18:15.883Z,100250.87
2019-05-22T09:20:49.924Z,100257.87
2019-05-22T09:23:22.491Z,100252.90
2019-05-22T09:25:54.593Z,100259.50
2019-05-22T09:28:26.430Z,100260.42
2019-05-22T09:31:00.492Z,100260.42
2019-05-22T09:33:32.797Z,100267.45
2019-05-22T09:36:10.426Z,100267.45
2019-05-22T09:38:54.570Z,100266.80
2019-05-22T09:41:34.570Z,100267.45
2019-05-22T09:44:05.791Z,100267.45
2019-05-22T09:46:39.380Z,100271.91
2019-05-22T09:49:12.268Z,100278.59
2019-05-22T09:51:48.273Z,100271.20
2019-05-22T09:54:19.728Z,100276.86
2019-05-22T09:56:51.995Z,100287.64
2019-05-22T09:59:25.370Z,100282.89
2019-05-22T10:01:59.299Z,100287.83
2019-05-22T10:04:32.108Z,100292.49
2019-05-22T10:07:03.877Z,100288.00
2019-05-22T10:09:36.087Z,100296.17
2019-05-22T10:12:17.355Z,100298.59
2019-05-22T10:14:49.560Z,100300.61
2019-05-22T10:17:29.936Z,100299.64
2019-05-22T10:20:01.714Z,100303.12
2019-05-22T10:22:33.923Z,100311.83
2019-05-22T10:25:15.850Z,100310.86
2019-05-22T10:27:39.774Z,100307.42
2019-05-22T10:30:14.252Z,100312.61
2019-05-22T10:32:49.339Z,100319.31
2019-05-22T10:35:26.471Z,100322.48
2019-05-22T10:38:04.220Z,100325.63
2019-05-22T10:40:36.049Z,100320.24
2019-05-22T10:43:08.816Z,100325.22
2019-05-22T10:45:41.307Z,100321.47
2019-05-22T10:48:17.546Z,100326.78
2019-05-22T10:50:49.298Z,100322.04
2019-05-22T10:53:32.820Z,100325.67
2019-05-22T10:56:00.059Z,100325.15
2019-05-22T10:58:31.825Z,100327.90
2019-05-22T11:01:03.618Z,100330.88
2019-05-22T11:03:35.382Z,100335.98
2019-05-22T11:06:08.063Z,100335.98
2019-05-22T11:08:40.774Z,100341.96
2019-05-22T11:11:11.599Z,100342.09
2019-05-22T11:13:59.878Z,100327.10
2019-05-22T11:16:17.749Z,100327.10
2019-05-22T11:18:57.862Z,100332.66
2019-05-22T11:21:30.021Z,100331.69
2019-05-22T11:24:03.075Z,100338.83
2019-05-22T11:26:51.816Z,100334.73
2019-05-22T11:29:34.308Z,100344.33
2019-05-22T11:32:11.917Z,100341.23
2019-05-22T11:35:01.915Z,100340.58
2019-05-22T11:37:46.855Z,100340.46
2019-05-22T11:40:27.186Z,100345.78
2019-05-22T11:42:59.585Z,100351.63
2019-05-22T11:45:39.297Z,100341.28
2019-05-22T11:48:11.329Z,100341.28
2019-05-22T11:50:44.412Z,100350.05
2019-05-22T11:53:16.729Z,100345.90
2019-05-22T11:55:48.489Z,100354.53
2019-05-22T11:58:24.794Z,100339.72
2019-05-22T12:00:56.605Z,100339.72
2019-05-22T12:03:28.363Z,100356.02
2019-05-22T12:06:00.062Z,100356.02
2019-05-22T12:08:32.980Z,100358.70
2019-05-22T12:11:06.579Z,100366.33
2019-05-22T12:13:39.813Z,100368.24
2019-05-22T12:16:12.311Z,100368.24
2019-05-22T12:18:44.339Z,100368.63
2019-05-22T12:21:15.987Z,100370.48
2019-05-22T12:23:47.776Z,100368.28
2019-05-22T12:26:18.546Z,100392.83
2019-05-22T12:28:50.415Z,100369.51
2019-05-22T12:31:23.304Z,100369.51
2019-05-22T12:33:55.783Z,100380.52
2019-05-22T12:36:28.320Z,100386.98
2019-05-22T12:39:00.982Z,100388.80
2019-05-22T12:41:32.705Z,100393.25
2019-05-22T12:44:04.100Z,100392.96
2019-05-22T12:46:36.699Z,100390.77
2019-05-22T12:49:09.113Z,100394.85
2019-05-22T12:51:40.999Z,100397.83
2019-05-22T12:54:12.876Z,100398.77
2019-05-22T12:56:44.750Z,100397.55
2019-05-22T12:59:16.702Z,100386.43
2019-05-22T13:01:47.654Z,100397.61
2019-05-22T13:04:19.067Z,100407.02
2019-05-22T13:06:50.771Z,100411.88
2019-05-22T13:09:22.436Z,100411.91
2019-05-22T13:11:54.737Z,100402.44
2019-05-22T13:14:25.578Z,100414.08
2019-05-22T13:16:57.506Z,100406.39
2019-05-22T13:19:30.513Z,100406.39
2019-05-22T13:22:03.297Z,100411.60
2019-05-22T13:24:35.261Z,100407.89
2019-05-22T13:27:08.254Z,100416.25
2019-05-22T13:29:40.265Z,100424.98
2019-05-22T13:32:12.358Z,100427.19
2019-05-22T13:34:44.771Z,100427.86
2019-05-22T13:37:16.871Z,100426.70
2019-05-22T13:39:49.114Z,100421.42
2019-05-22T13:42:22.298Z,100431.20
2019-05-22T13:44:53.986Z,100435.61
2019-05-22T13:47:26.429Z,100439.60
2019-05-22T13:49:58.302Z,100443.62
2019-05-22T13:54:44.576Z,100438.23
2019-05-22T13:57:17.386Z,100458.23
2019-05-22T13:59:49.429Z,100458.23
2019-05-22T14:02:21.411Z,100454.28
2019-05-22T14:04:53.318Z,100460.84
2019-05-22T14:07:25.379Z,100457.77
2019-05-22T14:09:57.669Z,100458.27
2019-05-22T14:12:28.905Z,100460.84
2019-05-22T14:15:00.944Z,100463.92
2019-05-22T14:17:34.024Z,100464.21
2019-05-22T14:20:05.762Z,100469.00
2019-05-22T14:22:36.629Z,100468.97
2019-05-22T14:25:08.791Z,100469.14
2019-05-22T14:27:41.877Z,100455.74
2019-05-22T14:30:14.765Z,100464.21
2019-05-22T14:32:46.780Z,100460.44
2019-05-22T14:35:20.299Z,100460.50
2019-05-22T14:37:52.318Z,100469.31
2019-05-22T14:40:23.894Z,100460.67
2019-05-22T14:42:55.791Z,100463.16
2019-05-22T14:45:27.531Z,100457.98
2019-05-22T14:48:00.258Z,100465.43
2019-05-22T14:50:33.087Z,100463.38
2019-05-22T14:53:05.769Z,100466.59
2019-05-22T14:55:37.512Z,100469.84
2019-05-22T14:58:09.373Z,100469.38
2019-05-22T15:00:42.075Z,100470.07
2019-05-22T15:03:13.832Z,100476.86
2019-05-22T15:05:45.758Z,100470.91
2019-05-22T15:08:17.275Z,100474.97
2019-05-22T15:10:50.013Z,100478.30
2019-05-22T15:13:22.066Z,100490.05
2019-05-22T15:15:53.803Z,100479.63
2019-05-22T15:18:30.060Z,100483.23
2019-05-22T15:21:02.753Z,100477.98
2019-05-22T15:23:33.741Z,100496.23
2019-05-22T15:26:04.652Z,100482.91
2019-05-22T15:28:37.437Z,100483.76
2019-05-22T15:31:09.297Z,100483.76
2019-05-22T15:33:41.445Z,100486.16
2019-05-22T15:36:14.307Z,100487.15
2019-05-22T15:38:46.600Z,100485.27
2019-05-22T15:41:18.348Z,100461.27
2019-05-22T15:43:53.002Z,100461.27
2019-05-22T15:46:24.450Z,100478.20
2019-05-22T15:48:56.307Z,100477.61
2019-05-22T15:51:32.403Z,100478.45
2019-05-22T15:54:04.894Z,100480.16
2019-05-22T15:56:36.803Z,100475.41
2019-05-22T15:59:09.497Z,100485.55
2019-05-22T16:01:41.774Z,100485.55
2019-05-22T16:04:15.259Z,100489.84
2019-05-22T16:06:48.734Z,100498.31
2019-05-22T16:09:21.365Z,100503.95
2019-05-22T16:11:54.765Z,100499.19
2019-05-22T16:14:26.145Z,100499.85
2019-05-22T16:16:57.758Z,100497.27
2019-05-22T16:19:29.566Z,100502.02
2019-05-22T16:22:04.392Z,100502.41
2019-05-22T16:24:36.771Z,100502.41
2019-05-22T16:27:08.547Z,100504.78
2019-05-22T16:29:40.497Z,100499.85
2019-05-22T16:32:12.597Z,100499.53
2019-05-22T16:34:43.505Z,100493.80
2019-05-22T16:37:16.022Z,100493.80
2019-05-22T16:39:50.366Z,100496.84
2019-05-22T16:42:22.341Z,100502.67
2019-05-22T16:44:54.313Z,100497.22
2019-05-22T16:47:26.674Z,100501.10
2019-05-22T16:49:58.841Z,100491.66
2019-05-22T16:52:30.751Z,100491.66
2019-05-22T16:55:02.116Z,100501.48
2019-05-22T16:57:34.335Z,100504.03
2019-05-22T17:00:06.311Z,100502.84
2019-05-22T17:02:38.314Z,100511.52
2019-05-22T17:05:11.790Z,100508.30
2019-05-22T17:07:42.627Z,100498.98
2019-05-22T17:10:15.266Z,100494.61
2019-05-22T17:12:47.895Z,100494.61
2019-05-22T17:15:21.641Z,100511.95
2019-05-22T17:17:53.728Z,100508.22
2019-05-22T17:20:26.333Z,100508.22
2019-05-22T17:22:58.421Z,100509.75
2019-05-22T17:25:30.654Z,100507.02
2019-05-22T17:28:01.279Z,100507.69
2019-05-22T17:30:34.258Z,100508.91
2019-05-22T17:33:06.305Z,100509.14
2019-05-22T17:35:39.306Z,100508.94
2019-05-22T17:38:11.334Z,100508.63
2019-05-22T17:40:44.006Z,100515.06
2019-05-22T17:43:17.167Z,100515.23
2019-05-22T17:45:51.189Z,100518.16
2019-05-22T17:48:29.159Z,100515.12
2019-05-22T17:51:04.148Z,100510.30
2019-05-22T17:53:37.048Z,100516.13
2019-05-22T17:56:08.971Z,100517.34
2019-05-22T17:58:44.301Z,100519.55
2019-05-22T18:01:17.501Z,100524.08
2019-05-22T18:03:49.462Z,100526.28
2019-05-22T18:06:21.728Z,100531.39
2019-05-22T18:08:53.410Z,100525.41
2019-05-22T18:11:25.572Z,100528.61
2019-05-22T18:14:06.298Z,100525.64
2019-05-22T18:16:38.345Z,100525.64
2019-05-22T18:19:10.527Z,100540.19
2019-05-22T18:21:43.056Z,100539.42
2019-05-22T18:24:15.869Z,100540.56
2019-05-22T18:26:47.829Z,100543.02
2019-05-22T18:29:19.778Z,100544.41
2019-05-22T18:31:50.652Z,100540.77
2019-05-22T18:34:22.546Z,100550.42
2019-05-22T18:36:54.311Z,100553.15
2019-05-22T18:39:28.522Z,100553.15
2019-05-22T18:42:00.837Z,100559.94
2019-05-22T18:44:33.063Z,100561.63
2019-05-22T18:47:05.409Z,100554.48
2019-05-22T18:49:37.313Z,100561.68
2019-05-22T18:52:09.737Z,100564.41
2019-05-22T18:54:40.664Z,100572.87
2019-05-22T18:57:12.569Z,100581.09
2019-05-22T18:59:45.079Z,100577.46
2019-05-22T19:02:17.446Z,100585.06
2019-05-22T19:04:49.310Z,100580.98
2019-05-22T19:07:20.963Z,100585.70
2019-05-22T19:09:52.787Z,100590.08
2019-05-22T19:12:25.434Z,100590.95
2019-05-22T19:14:57.780Z,100591.03
2019-05-22T19:17:29.156Z,100588.00
2019-05-22T19:20:00.799Z,100591.25
2019-05-22T19:22:32.744Z,100592.37
2019-05-22T19:25:04.281Z,100596.61
2019-05-22T19:27:35.867Z,100602.44
2019-05-22T19:30:07.724Z,100600.15
2019-05-22T19:32:38.773Z,100607.58
2019-05-22T19:35:10.598Z,100608.95
2019-05-22T19:37:42.324Z,100604.39
2019-05-22T19:40:14.409Z,100604.39
2019-05-22T19:42:46.326Z,100611.38
2019-05-22T19:45:19.390Z,100616.91
2019-05-22T19:47:57.367Z,100614.20
2019-05-22T19:50:29.593Z,100606.45
2019-05-22T19:53:17.531Z,100598.06
2019-05-22T19:55:35.321Z,100598.06
2019-05-22T19:58:07.650Z,100614.25
2019-05-22T20:00:39.822Z,100614.28
2019-05-22T20:03:11.925Z,100614.28
2019-05-22T20:05:44.610Z,100617.20
2019-05-22T20:08:16.849Z,100612.42
2019-05-22T20:10:48.379Z,100612.42
2019-05-22T20:13:21.309Z,100615.17
2019-05-22T20:15:53.764Z,100614.19
2019-05-22T20:18:24.640Z,100621.86
2019-05-22T20:20:56.770Z,100615.62
2019-05-22T20:23:36.274Z,100615.62
2019-05-22T20:26:01.407Z,100611.17
2019-05-22T20:28:33.400Z,100619.20
2019-05-22T20:31:05.886Z,100611.53
2019-05-22T20:33:38.306Z,100615.98
2019-05-22T20:36:10.784Z,100611.23
2019-05-22T20:38:42.782Z,100619.58
2019-05-22T20:41:13.955Z,100612.59
2019-05-22T20:43:46.370Z,100609.56
2019-05-22T20:46:19.361Z,100607.16
2019-05-22T20:48:51.319Z,100613.30
2019-05-22T20:51:22.898Z,100606.54
2019-05-22T20:53:55.330Z,100612.83
2019-05-22T20:56:28.313Z,100600.55
2019-05-22T20:59:01.647Z,100607.22
2019-05-22T21:01:33.650Z,100607.40
2019-05-22T21:04:07.282Z,100609.11
2019-05-22T21:06:53.381Z,100609.11
2019-05-22T21:09:26.446Z,100612.52
2019-05-22T21:11:58.316Z,100621.90
2019-05-22T21:14:30.317Z,100620.70
2019-05-22T21:17:02.750Z,100612.39
2019-05-22T21:19:35.517Z,100619.93
2019-05-22T21:22:08.783Z,100622.13
2019-05-22T21:24:40.260Z,100623.30
2019-05-22T21:27:12.074Z,100628.95
2019-05-22T21:29:44.315Z,100631.36
2019-05-22T21:32:16.329Z,100635.76
2019-05-22T21:34:48.310Z,100641.01
2019-05-22T21:37:21.383Z,100636.97
2019-05-22T21:39:53.458Z,100638.85
2019-05-22T21:42:25.473Z,100639.75
2019-05-22T21:44:57.689Z,100642.28
2019-05-22T21:49:33.040Z,100641.73
2019-05-22T21:52:07.542Z,100640.23
2019-05-22T21:54:39.334Z,100652.85
2019-05-22T21:57:12.314Z,100649.66
2019-05-22T21:59:43.878Z,100656.62
2019-05-22T22:02:21.458Z,100663.92
2019-05-22T22:04:53.710Z,100662.92
2019-05-22T22:07:24.956Z,100662.93
2019-05-22T22:09:56.877Z,100662.25
2019-05-22T22:12:28.879Z,100665.59
2019-05-22T22:15:00.686Z,100666.31
2019-05-22T22:17:32.665Z,100666.32
2019-05-22T22:20:04.131Z,100657.28
2019-05-22T22:22:37.311Z,100657.28
2019-05-22T22:25:09.670Z,100664.96
2019-05-22T22:27:42.309Z,100653.08
2019-05-22T22:30:23.470Z,100653.08
2019-05-22T22:32:56.138Z,100668.05
2019-05-22T22:35:27.802Z,100662.73
2019-05-22T22:37:59.466Z,100667.53
2019-05-22T22:40:32.491Z,100662.27
2019-05-22T22:43:06.692Z,100663.97
2019-05-22T22:45:44.521Z,100666.33
2019-05-22T22:48:17.996Z,100647.48
2019-05-22T22:50:50.635Z,100647.48
2019-05-22T22:53:22.673Z,100660.89
2019-05-22T22:55:54.826Z,100657.70
2019-05-22T22:58:26.604Z,100657.70
2019-05-22T23:00:59.377Z,100653.62
2019-05-22T23:03:31.553Z,100653.62
2019-05-22T23:06:04.305Z,100670.07
2019-05-22T23:08:36.680Z,100670.07
2019-05-22T23:11:10.074Z,100664.36
2019-05-22T23:13:42.269Z,100664.36
2019-05-22T23:16:15.385Z,100681.37
2019-05-22T23:19:34.327Z,100685.10
2019-05-22T23:22:06.075Z,100690.55
2019-05-22T23:24:41.310Z,100692.11
2019-05-22T23:27:13.830Z,100682.53
2019-05-22T23:29:46.743Z,100693.63
2019-05-22T23:32:54.798Z,100690.91
2019-05-22T23:35:27.431Z,100696.72
2019-05-22T23:37:59.834Z,100700.97
2019-05-22T23:40:33.789Z,100698.76
2019-05-22T23:43:07.854Z,100703.20
2019-05-22T23:45:40.378Z,100705.92
2019-05-22T23:48:15.278Z,100709.69
2019-05-22T23:50:48.827Z,100681.42
2019-05-22T23:53:21.711Z,100681.42
2019-05-22T23:55:54.553Z,100698.41
2019-05-22T23:58:28.368Z,100706.97
